Time;durP1;ratioP1;P1;durP2;ratioP2;P2;SDS_P1;SDS_P2;PMS_P1;PMS_P2;Temp;Humidity;BMP_temperature;BMP_pressure;BME280_temperature;BME280_humidity;BME280_pressure;Samples;Min_cycle;Max_cycle;Signal;HPM_P1;HPM_P2
2023/03/29 00:00:58;;;;;;;5.00;3.25;;;;;;;-146.19;100.00;58918.88;5006264;28;20077;-51
2023/03/29 00:03:29;;;;;;;4.63;2.58;;;;;;;-146.19;100.00;58918.88;5009165;28;20112;-51
2023/03/29 00:06:01;;;;;;;5.00;2.80;;;;;;;-146.19;100.00;58918.88;5009625;28;20081;-52
2023/03/29 00:08:32;;;;;;;4.53;2.72;;;;;;;-146.19;100.00;58918.88;5010586;28;20088;-48
2023/03/29 00:11:02;;;;;;;4.30;2.97;;;;;;;-146.19;100.00;58918.88;5010302;28;20089;-53
2023/03/29 00:13:31;;;;;;;5.32;2.88;;;;;;;-146.19;100.00;58918.88;5003201;28;20172;-57
2023/03/29 00:15:59;;;;;;;7.28;3.47;;;;;;;-146.19;100.00;58918.88;5004599;28;20086;-50
2023/03/29 00:18:28;;;;;;;5.18;3.33;;;;;;;-146.19;100.00;58918.88;5000863;28;20073;-53
2023/03/29 00:20:56;;;;;;;4.78;2.97;;;;;;;-146.19;100.00;58918.88;5004166;28;20092;-50
2023/03/29 00:23:25;;;;;;;5.20;3.28;;;;;;;-146.19;100.00;58918.88;5006522;28;20090;-48
2023/03/29 00:25:53;;;;;;;5.03;2.65;;;;;;;-146.19;100.00;58918.88;5001700;28;20086;-49
2023/03/29 00:28:23;;;;;;;5.30;2.80;;;;;;;-146.19;100.00;58918.88;5005805;28;20089;-51
2023/03/29 00:30:51;;;;;;;6.17;2.97;;;;;;;-146.19;100.00;58918.88;5003347;28;20085;-51
2023/03/29 00:33:21;;;;;;;5.47;2.47;;;;;;;-146.19;100.00;58918.88;5004785;28;20515;-49
2023/03/29 00:35:52;;;;;;;1.75;1.25;;;;;;;-146.19;100.00;58918.88;5004336;28;20084;-54
2023/03/29 00:38:20;;;;;;;3.88;2.50;;;;;;;-146.19;100.00;58918.88;5010945;28;20652;-50
2023/03/29 00:40:49;;;;;;;5.78;2.30;;;;;;;-146.19;100.00;58918.88;5011938;28;20077;-53
2023/03/29 00:43:17;;;;;;;5.82;2.63;;;;;;;-146.19;100.00;58918.88;5005713;28;20487;-48
2023/03/29 00:45:47;;;;;;;3.25;2.13;;;;;;;-146.19;100.00;58918.88;5006729;28;20084;-52
2023/03/29 00:48:17;;;;;;;4.22;2.50;;;;;;;-146.19;100.00;58918.88;5013091;28;20082;-48
2023/03/29 00:50:48;;;;;;;4.03;2.60;;;;;;;-146.19;100.00;58918.88;5009469;28;20092;-46
2023/03/29 00:53:20;;;;;;;4.68;2.20;;;;;;;-146.19;100.00;58918.88;5006262;28;20475;-48
2023/03/29 00:55:52;;;;;;;3.65;2.15;;;;;;;-146.19;100.00;58918.88;5006243;28;20081;-57
2023/03/29 00:58:25;;;;;;;4.22;2.30;;;;;;;-146.19;100.00;58918.88;5011103;28;20089;-53
2023/03/29 01:01:00;;;;;;;3.58;2.33;;;;;;;-146.19;100.00;58918.88;5009942;28;20119;-49
2023/03/29 01:03:34;;;;;;;3.92;2.63;;;;;;;-146.19;100.00;58918.88;5005860;28;20082;-53
2023/03/29 01:06:06;;;;;;;5.50;2.70;;;;;;;-146.19;100.00;58918.88;5006869;28;20104;-52
2023/03/29 01:08:37;;;;;;;4.47;2.47;;;;;;;-146.19;100.00;58918.88;5006910;28;20096;-51
2023/03/29 01:11:08;;;;;;;5.20;2.38;;;;;;;-146.19;100.00;58918.88;5005635;28;20522;-52
2023/03/29 01:13:39;;;;;;;3.60;2.40;;;;;;;-146.19;100.00;58918.88;5012529;28;20073;-49
2023/03/29 01:16:11;;;;;;;6.05;2.95;;;;;;;-146.19;100.00;58918.88;5009356;28;20530;-51
2023/03/29 01:18:40;;;;;;;5.32;2.88;;;;;;;-146.19;100.00;58918.88;5013824;28;20088;-51
2023/03/29 01:21:15;;;;;;;4.40;2.63;;;;;;;-146.19;100.00;58918.88;5004449;28;20081;-49
2023/03/29 01:24:16;;;;;;;3.53;1.70;;;;;;;-146.19;100.00;58918.88;5004573;28;20085;-50
2023/03/29 01:26:52;;;;;;;6.70;2.67;;;;;;;-146.19;100.00;58918.88;5006169;28;20081;-48
2023/03/29 01:29:25;;;;;;;5.25;2.17;;;;;;;-146.19;100.00;58918.88;5007743;28;20097;-48
2023/03/29 01:31:58;;;;;;;6.43;2.35;;;;;;;-146.19;100.00;58918.88;5014040;28;20279;-57
2023/03/29 01:34:33;;;;;;;3.65;2.17;;;;;;;-146.19;100.00;58918.88;5009743;28;20089;-50
2023/03/29 01:37:05;;;;;;;2.63;1.85;;;;;;;-146.19;100.00;58918.88;5011461;28;20096;-49
2023/03/29 01:39:33;;;;;;;4.85;2.00;;;;;;;-146.19;100.00;58918.88;5010220;28;20077;-49
2023/03/29 01:42:10;;;;;;;3.28;2.00;;;;;;;-146.19;100.00;58918.88;5005817;28;20107;-53
2023/03/29 01:44:47;;;;;;;4.28;2.20;;;;;;;-146.19;100.00;58918.88;5012265;28;20078;-50
2023/03/29 01:47:20;;;;;;;3.30;1.80;;;;;;;-146.19;100.00;58918.88;5009542;28;20113;-53
2023/03/29 01:49:53;;;;;;;4.20;2.22;;;;;;;-146.19;100.00;58918.88;5008225;28;20335;-51
2023/03/29 01:52:24;;;;;;;3.28;2.40;;;;;;;-146.19;100.00;58918.88;5002962;28;20089;-48
2023/03/29 01:54:54;;;;;;;3.40;2.30;;;;;;;-146.19;100.00;58918.88;5003652;28;20455;-50
2023/03/29 01:57:24;;;;;;;3.05;2.00;;;;;;;-146.19;100.00;58918.88;5012886;28;20088;-49
2023/03/29 01:59:56;;;;;;;2.17;1.63;;;;;;;-146.19;100.00;58918.88;5002963;28;20567;-51
2023/03/29 02:02:27;;;;;;;2.92;1.80;;;;;;;-146.19;100.00;58918.88;5008696;28;20089;-50
2023/03/29 02:04:58;;;;;;;2.42;1.63;;;;;;;-146.19;100.00;58918.88;5011338;28;20093;-54
2023/03/29 02:07:30;;;;;;;2.75;1.83;;;;;;;-146.19;100.00;58918.88;5010336;28;21139;-48
2023/03/29 02:09:58;;;;;;;3.40;1.70;;;;;;;-146.19;100.00;58918.88;5008132;28;20076;-51
2023/03/29 02:12:27;;;;;;;2.88;1.70;;;;;;;-146.19;100.00;58918.88;5004154;28;20082;-52
2023/03/29 02:14:59;;;;;;;2.67;1.40;;;;;;;-146.19;100.00;58918.88;5009784;28;20108;-49
2023/03/29 02:17:28;;;;;;;4.00;1.58;;;;;;;-146.19;100.00;58918.88;5009288;28;20542;-57
2023/03/29 02:19:59;;;;;;;8.10;1.60;;;;;;;-146.19;100.00;58918.88;4998032;28;20094;-53
2023/03/29 02:22:30;;;;;;;3.25;1.73;;;;;;;-146.19;100.00;58918.88;5002856;28;20081;-54
2023/03/29 02:24:59;;;;;;;2.40;1.70;;;;;;;-146.19;100.00;58918.88;5000878;28;20129;-52
2023/03/29 02:27:28;;;;;;;2.92;1.73;;;;;;;-146.19;100.00;58918.88;4997463;28;20085;-55
2023/03/29 02:29:58;;;;;;;3.30;1.58;;;;;;;-146.19;100.00;58918.88;5001568;28;20569;-51
2023/03/29 02:32:31;;;;;;;1.85;1.50;;;;;;;-146.19;100.00;58918.88;5001003;28;20081;-50
2023/03/29 02:35:03;;;;;;;2.22;1.70;;;;;;;-146.19;100.00;58918.88;5003153;28;20082;-52
2023/03/29 02:37:33;;;;;;;2.90;1.60;;;;;;;-146.19;100.00;58918.88;5002501;28;20085;-48
2023/03/29 02:40:06;;;;;;;5.88;2.05;;;;;;;-146.19;100.00;58918.88;5009859;28;20092;-48
2023/03/29 02:42:35;;;;;;;2.67;1.73;;;;;;;-146.19;100.00;58918.88;5004408;28;20077;-49
2023/03/29 02:45:06;;;;;;;2.40;1.60;;;;;;;-146.19;100.00;58918.88;5001923;28;20089;-53
2023/03/29 02:47:38;;;;;;;2.88;1.55;;;;;;;-146.19;100.00;58918.88;5000112;28;20085;-50
2023/03/29 02:50:07;;;;;;;4.30;1.58;;;;;;;-146.19;100.00;58918.88;5002885;28;20756;-52
2023/03/29 02:52:39;;;;;;;3.58;1.65;;;;;;;-146.19;100.00;58918.88;5001466;28;20089;-50
2023/03/29 02:55:10;;;;;;;4.10;1.52;;;;;;;-146.19;100.00;58918.88;4998043;28;20085;-53
2023/03/29 02:57:39;;;;;;;3.35;1.70;;;;;;;-146.19;100.00;58918.88;5001950;28;20558;-55
2023/03/29 03:00:13;;;;;;;4.88;1.70;;;;;;;-146.19;100.00;58918.88;5003105;28;20485;-51
2023/03/29 03:02:42;;;;;;;3.78;1.52;;;;;;;-146.19;100.00;58918.88;4999612;28;20439;-48
2023/03/29 03:05:10;;;;;;;3.88;1.45;;;;;;;-146.19;100.00;58918.88;5002644;28;20096;-50
2023/03/29 03:07:39;;;;;;;2.30;1.50;;;;;;;-146.19;100.00;58918.88;5001543;28;20081;-51
2023/03/29 03:10:08;;;;;;;2.55;1.50;;;;;;;-146.19;100.00;58918.88;5003182;28;20792;-53
2023/03/29 03:12:37;;;;;;;2.42;1.83;;;;;;;-146.19;100.00;58918.88;5002196;28;20069;-51
2023/03/29 03:15:06;;;;;;;4.53;1.92;;;;;;;-146.19;100.00;58918.88;5004605;28;20582;-57
2023/03/29 03:17:38;;;;;;;2.75;1.65;;;;;;;-146.19;100.00;58918.88;5001584;28;20507;-50
2023/03/29 03:20:11;;;;;;;5.20;1.58;;;;;;;-146.19;100.00;58918.88;5004049;28;20452;-49
2023/03/29 03:22:40;;;;;;;4.22;1.70;;;;;;;-146.19;100.00;58918.88;5005659;28;20081;-52
2023/03/29 03:25:12;;;;;;;2.80;1.50;;;;;;;-146.19;100.00;58918.88;5002259;28;20092;-54
2023/03/29 03:27:40;;;;;;;2.05;1.40;;;;;;;-146.19;100.00;58918.88;5003418;28;20581;-54
2023/03/29 03:30:10;;;;;;;2.67;1.35;;;;;;;-146.19;100.00;58918.88;5005779;28;20089;-54
2023/03/29 03:32:40;;;;;;;2.88;1.38;;;;;;;-146.19;100.00;58918.88;5001740;28;20089;-54
2023/03/29 03:35:10;;;;;;;2.25;1.38;;;;;;;-146.19;100.00;58918.88;5002753;28;20070;-54
2023/03/29 03:37:39;;;;;;;2.17;1.40;;;;;;;-146.19;100.00;58918.88;5000909;28;20092;-51
2023/03/29 03:40:10;;;;;;;2.42;1.40;;;;;;;-146.19;100.00;58918.88;5005386;28;20088;-53
2023/03/29 03:42:40;;;;;;;3.25;1.17;;;;;;;-146.19;100.00;58918.88;5005657;28;20080;-49
2023/03/29 03:45:11;;;;;;;2.08;1.10;;;;;;;-146.19;100.00;58918.88;5003514;28;20093;-49
2023/03/29 03:47:41;;;;;;;1.98;1.40;;;;;;;-146.19;100.00;58918.88;5006987;28;20080;-48
2023/03/29 03:50:10;;;;;;;2.55;1.30;;;;;;;-146.19;100.00;58918.88;5011988;28;20534;-54
2023/03/29 03:52:38;;;;;;;2.20;1.52;;;;;;;-146.19;100.00;58918.88;5003628;28;20136;-52
2023/03/29 03:55:08;;;;;;;1.80;1.45;;;;;;;-146.19;100.00;58918.88;5008382;28;20116;-50
2023/03/29 03:57:37;;;;;;;1.52;1.27;;;;;;;-146.19;100.00;58918.88;5003685;28;20762;-52
2023/03/29 04:00:17;;;;;;;2.80;1.73;;;;;;;-146.19;100.00;58918.88;5003783;28;20096;-54
2023/03/29 04:02:48;;;;;;;2.45;1.40;;;;;;;-146.19;100.00;58918.88;4995572;28;20086;-50
2023/03/29 04:05:17;;;;;;;1.33;1.00;;;;;;;-146.19;100.00;58918.88;5002383;28;20535;-50
2023/03/29 04:07:45;;;;;;;3.15;1.30;;;;;;;-146.19;100.00;58918.88;4998299;28;20084;-55
2023/03/29 04:10:14;;;;;;;1.80;1.13;;;;;;;-146.19;100.00;58918.88;5004152;28;20085;-51
2023/03/29 04:12:42;;;;;;;2.40;1.48;;;;;;;-146.19;100.00;58918.88;5007175;28;20085;-47
2023/03/29 04:15:11;;;;;;;1.73;1.10;;;;;;;-146.19;100.00;58918.88;5009477;28;20475;-49
2023/03/29 04:17:40;;;;;;;1.95;1.20;;;;;;;-146.19;100.00;58918.88;5017785;28;20563;-56
2023/03/29 04:20:11;;;;;;;1.98;1.20;;;;;;;-146.19;100.00;58918.88;5014100;28;20081;-54
2023/03/29 04:22:40;;;;;;;1.63;1.40;;;;;;;-146.19;100.00;58918.88;5014449;28;20085;-53
2023/03/29 04:25:10;;;;;;;2.10;1.50;;;;;;;-146.19;100.00;58918.88;5018707;28;20077;-51
2023/03/29 04:27:39;;;;;;;10.20;5.00;;;;;;;-146.19;100.00;58918.88;5013600;28;20078;-48
2023/03/29 04:30:08;;;;;;;1.20;1.10;;;;;;;-146.19;100.00;58918.88;5012954;28;20094;-49
2023/03/29 04:32:37;;;;;;;2.33;1.30;;;;;;;-146.19;100.00;58918.88;5013254;28;20498;-49
2023/03/29 04:35:06;;;;;;;4.03;1.23;;;;;;;-146.19;100.00;58918.88;5017206;28;20081;-48
2023/03/29 04:37:39;;;;;;;1.77;1.20;;;;;;;-146.19;100.00;58918.88;5009278;28;20081;-52
2023/03/29 04:40:08;;;;;;;3.13;1.35;;;;;;;-146.19;100.00;58918.88;5013520;28;20495;-50
2023/03/29 04:42:37;;;;;;;2.50;1.50;;;;;;;-146.19;100.00;58918.88;5014991;28;20092;-54
2023/03/29 04:45:06;;;;;;;2.47;1.48;;;;;;;-146.19;100.00;58918.88;5011584;28;20561;-50
2023/03/29 04:47:35;;;;;;;2.17;1.40;;;;;;;-146.19;100.00;58918.88;5012824;28;20081;-52
2023/03/29 04:50:04;;;;;;;1.60;1.30;;;;;;;-146.19;100.00;58918.88;5018073;28;20086;-56
2023/03/29 04:52:32;;;;;;;2.75;1.48;;;;;;;-146.19;100.00;58918.88;5012400;28;20078;-50
2023/03/29 04:55:04;;;;;;;1.83;1.30;;;;;;;-146.19;100.00;58918.88;5013599;28;20111;-51
2023/03/29 04:57:33;;;;;;;1.65;1.25;;;;;;;-146.19;100.00;58918.88;5017093;28;20116;-50
2023/03/29 05:00:01;;;;;;;1.60;1.25;;;;;;;-146.19;100.00;58918.88;5013032;28;20088;-49
2023/03/29 05:02:31;;;;;;;1.67;1.00;;;;;;;-146.19;100.00;58918.88;5006069;28;20056;-53
2023/03/29 05:04:59;;;;;;;1.35;1.05;;;;;;;-146.19;100.00;58918.88;5010156;28;20073;-52
2023/03/29 05:07:28;;;;;;;2.40;0.95;;;;;;;-146.19;100.00;58918.88;5021300;28;20526;-55
2023/03/29 05:09:56;;;;;;;1.55;1.33;;;;;;;-146.19;100.00;58918.88;5010932;28;20089;-49
2023/03/29 05:12:26;;;;;;;1.95;1.30;;;;;;;-146.19;100.00;58918.88;5043962;28;20104;-50
2023/03/29 05:14:55;;;;;;;1.67;1.20;;;;;;;-146.19;100.00;58918.88;5017350;28;20466;-49
2023/03/29 05:17:26;;;;;;;2.88;1.30;;;;;;;-146.19;100.00;58918.88;5017082;28;20104;-54
2023/03/29 05:19:54;;;;;;;;;;;;;;;-146.19;100.00;58918.88;5012134;28;20082;-52
2023/03/29 05:22:23;;;;;;;2.58;1.50;;;;;;;-146.19;100.00;58918.88;5011653;28;19976;-52
2023/03/29 05:24:51;;;;;;;1.98;1.73;;;;;;;-146.19;100.00;58918.88;5011742;28;20165;-50
2023/03/29 05:27:21;;;;;;;1.70;1.38;;;;;;;-146.19;100.00;58918.88;5013225;28;20538;-51
2023/03/29 05:29:51;;;;;;;3.67;1.70;;;;;;;-146.19;100.00;58918.88;5007802;28;20077;-50
2023/03/29 05:32:19;;;;;;;4.60;3.10;;;;;;;-146.19;100.00;58918.88;5012119;28;20081;-50
2023/03/29 05:34:49;;;;;;;5.30;2.67;;;;;;;-146.19;100.00;58918.88;5015610;28;20086;-47
2023/03/29 05:37:17;;;;;;;7.57;4.87;;;;;;;-146.19;100.00;58918.88;5010534;28;20086;-50
2023/03/29 05:39:47;;;;;;;3.17;2.53;;;;;;;-146.19;100.00;58918.88;5012709;28;20089;-49
2023/03/29 05:42:21;;;;;;;2.63;1.30;;;;;;;-146.19;100.00;58918.88;5011915;28;20089;-49
2023/03/29 05:44:51;;;;;;;3.10;2.33;;;;;;;-146.19;100.00;58918.88;5016193;28;20073;-51
2023/03/29 05:47:22;;;;;;;2.85;2.47;;;;;;;-146.19;100.00;58918.88;5016480;28;20165;-54
2023/03/29 05:49:51;;;;;;;2.90;2.30;;;;;;;-146.19;100.00;58918.88;4995004;28;20062;-52
2023/03/29 05:52:20;;;;;;;5.47;2.75;;;;;;;-146.19;100.00;58918.88;4996152;28;20073;-53
2023/03/29 05:54:48;;;;;;;2.90;1.98;;;;;;;-146.19;100.00;58918.88;5025289;28;20144;-51
2023/03/29 05:57:17;;;;;;;3.63;1.80;;;;;;;-146.19;100.00;58918.88;4989790;28;20082;-48
2023/03/29 05:59:45;;;;;;;2.03;1.40;;;;;;;-146.19;100.00;58918.88;4993735;28;20500;-49
2023/03/29 06:02:15;;;;;;;2.72;1.23;;;;;;;-146.19;100.00;58918.88;4996329;28;20546;-53
2023/03/29 06:04:44;;;;;;;2.08;1.30;;;;;;;-146.19;100.00;58918.88;4991332;28;20086;-50
2023/03/29 06:07:13;;;;;;;2.58;1.58;;;;;;;-146.19;100.00;58918.88;4994834;28;20086;-51
2023/03/29 06:09:41;;;;;;;2.08;1.60;;;;;;;-146.19;100.00;58918.88;4993670;28;20077;-47
2023/03/29 06:12:11;;;;;;;2.60;1.27;;;;;;;-146.19;100.00;58918.88;4991749;28;20086;-49
2023/03/29 06:14:39;;;;;;;2.53;1.27;;;;;;;-146.19;100.00;58918.88;4999706;28;20077;-50
2023/03/29 06:17:07;;;;;;;2.58;1.00;;;;;;;-146.19;100.00;58918.88;4992969;28;20090;-49
2023/03/29 06:19:37;;;;;;;1.88;1.13;;;;;;;-146.19;100.00;58918.88;4989502;28;20458;-49
2023/03/29 06:22:05;;;;;;;3.67;0.98;;;;;;;-146.19;100.00;58918.88;4990860;28;20086;-49
2023/03/29 06:24:33;;;;;;;1.80;1.10;;;;;;;-146.19;100.00;58918.88;5000268;28;20488;-48
2023/03/29 06:27:02;;;;;;;1.83;1.10;;;;;;;-146.19;100.00;58918.88;4991478;28;20089;-49
2023/03/29 06:29:30;;;;;;;1.05;0.90;;;;;;;-146.19;100.00;58918.88;4995932;28;20185;-48
2023/03/29 06:31:59;;;;;;;3.30;1.00;;;;;;;-146.19;100.00;58918.88;4993548;28;20100;-51
2023/03/29 06:34:27;;;;;;;1.75;1.00;;;;;;;-146.19;100.00;58918.88;4993349;28;20086;-52
2023/03/29 06:36:57;;;;;;;2.97;1.10;;;;;;;-146.19;100.00;58918.88;4985077;28;20511;-51
2023/03/29 06:39:25;;;;;;;1.87;1.10;;;;;;;-146.19;100.00;58918.88;4988228;28;20483;-52
2023/03/29 06:41:54;;;;;;;2.40;1.10;;;;;;;-146.19;100.00;58918.88;4996429;28;20078;-51
2023/03/29 06:44:22;;;;;;;1.42;1.10;;;;;;;-146.19;100.00;58918.88;4992995;28;20085;-46
2023/03/29 06:46:51;;;;;;;3.92;1.17;;;;;;;-146.19;100.00;58918.88;4989448;28;20081;-52
2023/03/29 06:49:20;;;;;;;1.92;1.10;;;;;;;-146.19;100.00;58918.88;4989529;28;20082;-54
2023/03/29 06:51:48;;;;;;;4.65;1.20;;;;;;;-146.19;100.00;58918.88;4996191;28;20081;-56
2023/03/29 06:54:18;;;;;;;2.80;1.20;;;;;;;-146.19;100.00;58918.88;4989722;28;20092;-51
2023/03/29 06:56:47;;;;;;;1.80;1.20;;;;;;;-146.19;100.00;58918.88;4997342;28;20081;-55
2023/03/29 06:59:15;;;;;;;3.33;1.90;;;;;;;-146.19;100.00;58918.88;4991226;28;20105;-58
2023/03/29 07:01:43;;;;;;;3.47;1.70;;;;;;;-146.19;100.00;58918.88;4985270;28;20553;-48
2023/03/29 07:04:12;;;;;;;3.78;1.42;;;;;;;-146.19;100.00;58918.88;4994151;28;20089;-49
2023/03/29 07:06:47;;;;;;;2.80;1.23;;;;;;;-146.19;100.00;58918.88;4992450;28;20092;-52
2023/03/29 07:09:15;;;;;;;3.60;1.10;;;;;;;-146.19;100.00;58918.88;4986012;28;20082;-52
2023/03/29 07:11:49;;;;;;;3.17;1.30;;;;;;;-146.19;100.00;58918.88;4987076;28;20089;-52
2023/03/29 07:14:17;;;;;;;3.00;0.93;;;;;;;-146.19;100.00;58918.88;4993761;28;20478;-50
2023/03/29 07:16:45;;;;;;;1.17;0.90;;;;;;;-146.19;100.00;58918.88;4993770;28;20090;-50
2023/03/29 07:19:14;;;;;;;1.55;0.90;;;;;;;-146.19;100.00;58918.88;4990010;28;20081;-49
2023/03/29 07:21:43;;;;;;;1.70;0.85;;;;;;;-146.19;100.00;58918.88;4988554;28;20093;-54
2023/03/29 07:24:11;;;;;;;3.08;0.85;;;;;;;-146.19;100.00;58918.88;4992056;28;20157;-51
2023/03/29 07:26:40;;;;;;;1.35;0.60;;;;;;;-146.19;100.00;58918.88;4993064;28;20092;-51
2023/03/29 07:29:29;;;;;;;1.27;0.68;;;;;;;-146.19;100.00;58918.88;4994336;28;20142;-51
2023/03/29 07:31:57;;;;;;;2.15;0.52;;;;;;;-146.19;100.00;58918.88;4994489;28;20082;-52
2023/03/29 07:34:28;;;;;;;1.45;0.65;;;;;;;-146.19;100.00;58918.88;4992507;28;20097;-51
2023/03/29 07:36:58;;;;;;;0.77;0.57;;;;;;;-146.19;100.00;58918.88;4999019;28;20100;-52
2023/03/29 07:39:26;;;;;;;3.05;0.88;;;;;;;-146.19;100.00;58918.88;4990391;28;20120;-49
2023/03/29 07:41:57;;;;;;;2.78;0.60;;;;;;;-146.19;100.00;58918.88;4997713;28;20081;-53
2023/03/29 07:44:25;;;;;;;1.58;0.70;;;;;;;-146.19;100.00;58918.88;4992377;28;20092;-49
2023/03/29 07:46:57;;;;;;;1.40;0.70;;;;;;;-146.19;100.00;58918.88;4995256;28;20078;-53
2023/03/29 07:49:25;;;;;;;1.90;0.80;;;;;;;-146.19;100.00;58918.88;4989165;28;20082;-49
2023/03/29 07:51:54;;;;;;;3.88;1.10;;;;;;;-146.19;100.00;58918.88;4997568;28;20085;-48
2023/03/29 07:54:22;;;;;;;2.80;0.70;;;;;;;-146.19;100.00;58918.88;4994125;28;20097;-48
2023/03/29 07:56:51;;;;;;;1.63;0.75;;;;;;;-146.19;100.00;58918.88;5000356;28;20586;-53
2023/03/29 07:59:19;;;;;;;1.15;0.60;;;;;;;-146.19;100.00;58918.88;4992841;28;20081;-47
2023/03/29 08:01:47;;;;;;;1.08;0.68;;;;;;;-146.19;100.00;58918.88;4992434;28;20090;-50
2023/03/29 08:04:17;;;;;;;2.78;0.90;;;;;;;-146.19;100.00;58918.88;4999071;28;20090;-52
2023/03/29 08:06:46;;;;;;;1.00;0.70;;;;;;;-146.19;100.00;58918.88;4992247;28;20086;-53
2023/03/29 08:09:14;;;;;;;1.52;0.93;;;;;;;-146.19;100.00;58918.88;4995543;28;20104;-52
2023/03/29 08:11:42;;;;;;;2.03;0.77;;;;;;;-146.19;100.00;58918.88;4996001;28;20706;-50
2023/03/29 08:14:11;;;;;;;2.63;1.10;;;;;;;-146.19;100.00;58918.88;4998657;28;20100;-54
2023/03/29 08:16:39;;;;;;;1.27;0.70;;;;;;;-146.19;100.00;58918.88;4992216;28;20092;-52
2023/03/29 08:19:07;;;;;;;3.13;1.05;;;;;;;-146.19;100.00;58918.88;4996194;28;20085;-53
2023/03/29 08:21:37;;;;;;;1.92;0.70;;;;;;;-146.19;100.00;58918.88;4996686;28;20092;-51
2023/03/29 08:24:06;;;;;;;4.27;0.90;;;;;;;-146.19;100.00;58918.88;4996971;28;20582;-51
2023/03/29 08:26:35;;;;;;;5.25;1.50;;;;;;;-146.19;100.00;58918.88;4993776;28;20089;-49
2023/03/29 08:29:03;;;;;;;1.65;1.00;;;;;;;-146.19;100.00;58918.88;4997138;28;20086;-46
2023/03/29 08:31:32;;;;;;;3.55;1.20;;;;;;;-146.19;100.00;58918.88;4998481;28;20089;-52
2023/03/29 08:34:00;;;;;;;3.35;1.00;;;;;;;-146.19;100.00;58918.88;4996324;28;20074;-49
2023/03/29 08:36:29;;;;;;;1.05;0.75;;;;;;;-146.19;100.00;58918.88;5002573;28;20482;-51
2023/03/29 08:39:00;;;;;;;1.50;0.80;;;;;;;-146.19;100.00;58918.88;4994080;28;20086;-49
2023/03/29 08:41:36;;;;;;;4.45;1.27;;;;;;;-146.19;100.00;58918.88;4992797;28;20086;-54
2023/03/29 08:44:13;;;;;;;3.53;1.10;;;;;;;-146.19;100.00;58918.88;4992776;28;20092;-49
2023/03/29 08:46:47;;;;;;;4.53;1.33;;;;;;;-146.19;100.00;58918.88;4999733;28;20090;-53
2023/03/29 08:49:16;;;;;;;2.53;1.00;;;;;;;-146.19;100.00;58918.88;4994801;28;20081;-53
2023/03/29 08:51:46;;;;;;;2.85;1.08;;;;;;;-146.19;100.00;58918.88;4996583;28;20070;-52
2023/03/29 08:54:18;;;;;;;3.65;1.10;;;;;;;-146.19;100.00;58918.88;4991857;28;20073;-48
2023/03/29 08:56:46;;;;;;;2.15;1.02;;;;;;;-146.19;100.00;58918.88;4993271;28;20089;-50
2023/03/29 08:59:19;;;;;;;3.80;0.80;;;;;;;-146.19;100.00;58918.88;4991693;28;20081;-52
2023/03/29 09:01:49;;;;;;;2.97;1.05;;;;;;;-146.19;100.00;58918.88;4997166;28;20079;-53
2023/03/29 09:04:21;;;;;;;1.30;0.60;;;;;;;-146.19;100.00;58918.88;4997644;28;20453;-49
2023/03/29 09:06:50;;;;;;;0.95;0.77;;;;;;;-146.19;100.00;58918.88;4986491;28;20096;-50
2023/03/29 09:09:21;;;;;;;2.45;0.88;;;;;;;-146.19;100.00;58918.88;4998077;28;20085;-54
2023/03/29 09:12:01;;;;;;;2.08;0.70;;;;;;;-146.19;100.00;58918.88;4991964;28;20081;-52
2023/03/29 09:14:42;;;;;;;2.05;0.95;;;;;;;-146.19;100.00;58918.88;4986919;28;20069;-53
2023/03/29 09:17:20;;;;;;;1.85;0.90;;;;;;;-146.19;100.00;58918.88;5001382;28;20518;-51
2023/03/29 09:19:52;;;;;;;1.35;0.80;;;;;;;-146.19;100.00;58918.88;4992710;28;20100;-55
2023/03/29 09:22:24;;;;;;;2.17;0.75;;;;;;;-146.19;100.00;58918.88;4995175;28;20089;-48
2023/03/29 09:25:04;;;;;;;3.38;1.13;;;;;;;-146.19;100.00;58918.88;4996566;28;20088;-50
2023/03/29 09:27:35;;;;;;;2.75;0.90;;;;;;;-146.19;100.00;58918.88;4999449;28;20089;-50
2023/03/29 09:30:14;;;;;;;3.22;1.48;;;;;;;-146.19;100.00;58918.88;5005847;28;20081;-50
2023/03/29 09:32:48;;;;;;;1.65;1.00;;;;;;;-146.19;100.00;58918.88;4990980;28;20093;-54
2023/03/29 09:35:22;;;;;;;2.03;0.65;;;;;;;-146.19;100.00;58918.88;4993602;28;20081;-50
2023/03/29 09:37:52;;;;;;;2.17;0.70;;;;;;;-146.19;100.00;58918.88;4992389;28;20086;-50
2023/03/29 09:40:26;;;;;;;1.15;0.68;;;;;;;-146.19;100.00;58918.88;4996799;28;20081;-54
2023/03/29 09:42:54;;;;;;;4.50;1.08;;;;;;;-146.19;100.00;58918.88;4995888;28;20085;-55
2023/03/29 09:45:23;;;;;;;3.40;1.05;;;;;;;-146.19;100.00;58918.88;5001460;28;20086;-53
2023/03/29 09:47:55;;;;;;;1.20;0.70;;;;;;;-146.19;100.00;58918.88;4991472;28;20083;-51
2023/03/29 09:50:28;;;;;;;1.70;0.60;;;;;;;-146.19;100.00;58918.88;4995371;28;20074;-53
2023/03/29 09:52:59;;;;;;;2.50;0.70;;;;;;;-146.19;100.00;58918.88;5001188;28;20057;-51
2023/03/29 09:55:32;;;;;;;3.08;0.70;;;;;;;-146.19;100.00;58918.88;4995855;28;20078;-52
2023/03/29 09:58:02;;;;;;;1.30;0.63;;;;;;;-146.19;100.00;58918.88;4989085;28;20464;-56
2023/03/29 10:00:31;;;;;;;1.33;0.70;;;;;;;-146.19;100.00;58918.88;4990757;28;20086;-53
2023/03/29 10:02:59;;;;;;;2.00;0.85;;;;;;;-146.19;100.00;58918.88;5004201;28;20076;-52
2023/03/29 10:05:31;;;;;;;2.13;0.80;;;;;;;-146.19;100.00;58918.88;4991960;28;20348;-51
2023/03/29 10:08:01;;;;;;;2.30;0.63;;;;;;;-146.19;100.00;58918.88;4989400;28;20475;-52
2023/03/29 10:10:31;;;;;;;0.63;0.50;;;;;;;-146.19;100.00;58918.88;4991365;28;20085;-50
2023/03/29 10:13:04;;;;;;;1.65;0.77;;;;;;;-146.19;100.00;58918.88;4990277;28;20070;-53
2023/03/29 10:15:33;;;;;;;3.33;0.60;;;;;;;-146.19;100.00;58918.88;4988883;28;20077;-51
2023/03/29 10:18:03;;;;;;;4.65;0.73;;;;;;;-146.19;100.00;58918.88;4992521;28;20089;-54
2023/03/29 10:20:35;;;;;;;2.03;0.90;;;;;;;-146.19;100.00;58918.88;4990198;28;20081;-51
2023/03/29 10:23:06;;;;;;;2.58;0.60;;;;;;;-146.19;100.00;58918.88;4986345;28;20112;-52
2023/03/29 10:25:39;;;;;;;4.50;1.20;;;;;;;-146.19;100.00;58918.88;4989278;28;20547;-55
2023/03/29 10:28:13;;;;;;;1.67;0.70;;;;;;;-146.19;100.00;58918.88;4991251;28;20077;-55
2023/03/29 10:30:42;;;;;;;1.98;0.75;;;;;;;-146.19;100.00;58918.88;4993543;28;20073;-48
2023/03/29 10:33:16;;;;;;;2.78;0.75;;;;;;;-146.19;100.00;58918.88;4990205;28;20077;-57
2023/03/29 10:35:46;;;;;;;2.80;0.63;;;;;;;-146.19;100.00;58918.88;4996803;28;20082;-51
2023/03/29 10:38:17;;;;;;;1.05;0.73;;;;;;;-146.19;100.00;58918.88;4989527;28;20081;-53
2023/03/29 10:40:47;;;;;;;;;;;;;;;-146.19;100.00;58918.88;4994286;28;20695;-52
2023/03/29 10:43:21;;;;;;;2.25;0.77;;;;;;;-146.19;100.00;58918.88;4990063;28;19957;-54
2023/03/29 10:45:51;;;;;;;0.98;0.77;;;;;;;-146.19;100.00;58918.88;4991220;28;20084;-49
2023/03/29 10:48:24;;;;;;;3.20;0.70;;;;;;;-146.19;100.00;58918.88;4995241;28;20073;-49
2023/03/29 10:50:53;;;;;;;2.45;0.63;;;;;;;-146.19;100.00;58918.88;4992355;28;20527;-54
2023/03/29 10:53:24;;;;;;;2.15;0.90;;;;;;;-146.19;100.00;58918.88;4996292;28;20094;-52
2023/03/29 10:56:06;;;;;;;0.95;0.80;;;;;;;-146.19;100.00;58918.88;4991314;28;20140;-50
2023/03/29 10:58:42;;;;;;;1.48;0.80;;;;;;;-146.19;100.00;58918.88;4993699;28;20546;-53
2023/03/29 11:01:16;;;;;;;2.30;0.80;;;;;;;-146.19;100.00;58918.88;4994107;28;20074;-53
2023/03/29 11:04:08;;;;;;;2.05;0.80;;;;;;;-146.19;100.00;58918.88;4987260;28;20065;-52
2023/03/29 11:06:40;;;;;;;1.75;0.90;;;;;;;-146.19;100.00;58918.88;4987660;28;20073;-51
2023/03/29 11:09:18;;;;;;;2.47;0.80;;;;;;;-146.19;100.00;58918.88;4987705;28;20082;-53
2023/03/29 11:12:07;;;;;;;1.73;0.55;;;;;;;-146.19;100.00;58918.88;4988973;28;20066;-53
2023/03/29 11:14:53;;;;;;;0.85;0.60;;;;;;;-146.19;100.00;58918.88;4986794;28;20109;-57
2023/03/29 11:17:32;;;;;;;1.40;0.55;;;;;;;-146.19;100.00;58918.88;4990540;28;20089;-52
2023/03/29 11:20:11;;;;;;;4.45;0.85;;;;;;;-146.19;100.00;58918.88;4989166;28;20093;-54
2023/03/29 11:22:46;;;;;;;1.23;0.65;;;;;;;-146.19;100.00;58918.88;4990907;28;20077;-53
2023/03/29 11:25:29;;;;;;;2.08;0.77;;;;;;;-146.19;100.00;58918.88;4984105;28;20089;-56